Time;durP1;ratioP1;P1;durP2;ratioP2;P2;SDS_P1;SDS_P2;PMS_P1;PMS_P2;Temp;Humidity;BMP_temperature;BMP_pressure;BME280_temperature;BME280_humidity;BME280_pressure;Samples;Min_cycle;Max_cycle;Signal;HPM_P1;HPM_P2
2023/06/14 00:01:53;;;;;;;5.33;3.30;;;;;;;19.69;51.04;98722.97;5127671;27;20766;-76
2023/06/14 00:04:21;;;;;;;5.07;3.30;;;;;;;19.30;51.68;98728.91;5125591;27;20288;-76
2023/06/14 00:06:50;;;;;;;6.97;3.50;;;;;;;19.59;51.21;98731.19;5126022;27;20278;-76
2023/06/14 00:09:19;;;;;;;8.43;3.60;;;;;;;19.25;52.12;98730.41;5128234;27;20222;-77
2023/06/14 00:11:47;;;;;;;5.78;3.63;;;;;;;19.28;51.95;98732.75;5127675;27;20244;-77
2023/06/14 00:14:17;;;;;;;5.88;3.80;;;;;;;19.29;52.76;98742.47;5121469;27;20202;-77
2023/06/14 00:16:45;;;;;;;5.78;3.53;;;;;;;19.34;51.55;98743.69;5120895;27;20198;-77
2023/06/14 00:19:16;;;;;;;8.90;3.70;;;;;;;19.38;51.90;98749.56;5123720;27;20202;-76
2023/06/14 00:21:45;;;;;;;5.83;3.97;;;;;;;19.29;52.58;98742.47;5087981;28;20204;-76
2023/06/14 00:24:13;;;;;;;8.27;3.60;;;;;;;19.34;52.49;98746.38;5083842;28;20690;-77
2023/06/14 00:26:42;;;;;;;6.37;3.70;;;;;;;19.27;53.06;98742.66;5089457;28;20192;-77
2023/06/14 00:29:10;;;;;;;7.47;3.70;;;;;;;19.19;53.33;98744.47;5047389;28;20220;-77
2023/06/14 00:31:39;;;;;;;9.03;3.77;;;;;;;19.14;54.11;98751.19;5048072;28;20185;-77
2023/06/14 00:34:09;;;;;;;6.07;3.53;;;;;;;18.93;54.66;98749.94;5042048;28;20201;-77
2023/06/14 00:36:40;;;;;;;4.47;3.80;;;;;;;19.13;54.65;98745.97;5040075;28;20196;-77
2023/06/14 00:39:11;;;;;;;6.80;3.27;;;;;;;18.93;55.38;98750.78;5054395;28;20196;-76
2023/06/14 00:41:40;;;;;;;5.07;3.60;;;;;;;19.05;54.92;98752.16;5086180;28;20200;-77
2023/06/14 00:44:10;;;;;;;6.10;4.33;;;;;;;18.83;56.11;98753.56;5091509;28;20317;-77
2023/06/14 00:46:38;;;;;;;4.80;3.50;;;;;;;18.95;56.00;98753.28;5084630;28;20187;-77
2023/06/14 00:49:07;;;;;;;6.67;3.80;;;;;;;18.78;57.41;98744.31;5105058;28;20264;-77
2023/06/14 00:51:39;;;;;;;5.63;3.43;;;;;;;18.47;58.70;98750.16;5107587;28;20191;-76
2023/06/14 00:54:07;;;;;;;5.93;3.90;;;;;;;18.40;59.88;98748.25;5107348;28;20199;-77
2023/06/14 00:56:37;;;;;;;6.77;3.40;;;;;;;18.65;58.79;98747.44;5029208;28;20225;-76
2023/06/14 00:59:05;;;;;;;7.23;4.17;;;;;;;18.58;59.36;98751.72;5031359;28;20368;-76
2023/06/14 01:01:34;;;;;;;5.10;3.17;;;;;;;18.62;59.48;98761.13;5025094;28;20200;-76
2023/06/14 01:04:03;;;;;;;5.43;3.60;;;;;;;18.84;59.21;98759.78;5024076;28;20609;-76
2023/06/14 01:06:42;;;;;;;4.50;3.70;;;;;;;18.70;60.35;98755.00;5022002;28;20197;-77
2023/06/14 01:09:22;;;;;;;6.90;3.83;;;;;;;18.79;59.97;98756.72;5026191;28;20194;-76
2023/06/14 01:12:00;;;;;;;5.57;4.03;;;;;;;18.94;59.44;98756.97;5025699;28;20201;-76
2023/06/14 01:14:31;;;;;;;6.00;4.07;;;;;;;18.82;60.03;98751.06;5019920;28;20200;-77
2023/06/14 01:17:01;;;;;;;6.97;3.70;;;;;;;18.99;59.38;98751.94;5067219;28;20235;-77
2023/06/14 01:19:31;;;;;;;9.47;4.33;;;;;;;18.65;60.51;98762.69;5065427;28;20196;-77
2023/06/14 01:22:01;;;;;;;8.30;3.87;;;;;;;18.64;61.00;98759.16;5060806;28;20202;-76
2023/06/14 01:24:34;;;;;;;7.00;3.90;;;;;;;18.39;63.06;98755.47;5069637;28;20250;-77
2023/06/14 01:27:03;;;;;;;9.97;4.23;;;;;;;18.49;63.48;98753.50;5066786;28;20200;-76
2023/06/14 01:29:33;;;;;;;6.20;3.93;;;;;;;18.44;64.07;98765.72;5063321;28;20226;-77
2023/06/14 01:32:02;;;;;;;4.77;3.47;;;;;;;18.31;65.34;98756.25;5075381;28;20237;-76
2023/06/14 01:34:31;;;;;;;6.60;3.70;;;;;;;18.01;67.35;98754.84;5109101;28;20198;-77
2023/06/14 01:37:02;;;;;;;7.37;4.20;;;;;;;17.91;68.53;98758.63;5105862;28;20266;-76
2023/06/14 01:39:35;;;;;;;6.40;4.27;;;;;;;17.92;69.47;98750.41;5105489;28;20205;-77
2023/06/14 01:42:03;;;;;;;5.27;3.83;;;;;;;18.03;68.53;98752.84;5105828;28;20195;-77
2023/06/14 01:44:32;;;;;;;7.13;4.03;;;;;;;18.06;69.24;98753.56;5074183;28;20209;-77
2023/06/14 01:47:01;;;;;;;6.07;4.30;;;;;;;18.08;69.03;98755.06;5103009;28;20191;-77
2023/06/14 01:49:29;;;;;;;8.87;4.10;;;;;;;18.09;69.03;98750.56;5102933;28;20203;-77
2023/06/14 01:51:57;;;;;;;8.20;4.23;;;;;;;18.09;69.80;98751.41;5103777;28;20202;-77
2023/06/14 01:54:27;;;;;;;6.43;4.03;;;;;;;17.81;70.69;98756.00;5108008;28;20237;-77
2023/06/14 01:56:57;;;;;;;5.43;4.20;;;;;;;17.78;72.09;98758.19;5109056;28;20217;-76
2023/06/14 01:59:25;;;;;;;8.70;4.37;;;;;;;17.68;73.48;98753.69;5045570;28;20204;-76
2023/06/14 02:01:53;;;;;;;8.67;4.23;;;;;;;17.91;72.77;98754.09;5044239;28;20239;-77
2023/06/14 02:04:22;;;;;;;5.67;4.20;;;;;;;17.67;73.29;98759.22;5049937;28;20197;-76
2023/06/14 02:06:50;;;;;;;6.57;4.07;;;;;;;17.40;76.07;98755.59;5044072;28;20201;-77
2023/06/14 02:09:20;;;;;;;5.67;3.87;;;;;;;17.57;76.00;98747.75;5045330;28;20193;-77
2023/06/14 02:11:48;;;;;;;5.47;4.10;;;;;;;17.38;77.44;98752.22;5042344;28;20224;-77
2023/06/14 02:14:18;;;;;;;5.63;4.10;;;;;;;17.33;78.75;98759.03;5037663;28;20197;-77
2023/06/14 02:16:49;;;;;;;7.40;3.83;;;;;;;17.12;80.19;98764.66;5058778;28;20209;-76
2023/06/14 02:19:17;;;;;;;6.10;3.83;;;;;;;17.03;81.63;98766.38;5106417;28;20195;-76
2023/06/14 02:21:46;;;;;;;5.90;4.10;;;;;;;17.01;81.59;98771.03;5092820;28;20222;-77
2023/06/14 02:24:15;;;;;;;7.07;4.30;;;;;;;17.04;81.82;98769.91;5104030;28;20191;-76
2023/06/14 02:26:43;;;;;;;5.43;4.37;;;;;;;16.99;82.62;98772.19;5102805;28;20195;-76
2023/06/14 02:29:14;;;;;;;6.30;4.03;;;;;;;16.83;84.18;98778.16;5109925;28;20217;-76
2023/06/14 02:31:46;;;;;;;5.47;4.07;;;;;;;16.96;84.81;98777.81;5102957;28;20282;-76
2023/06/14 02:34:16;;;;;;;7.13;4.30;;;;;;;17.12;83.61;98776.19;5106279;28;20191;-77
2023/06/14 02:36:45;;;;;;;7.40;4.07;;;;;;;17.04;83.05;98776.09;5126765;28;20187;-76
2023/06/14 02:39:13;;;;;;;6.53;4.00;;;;;;;16.98;83.21;98779.34;5131945;28;20205;-77
2023/06/14 02:41:42;;;;;;;5.87;3.80;;;;;;;16.90;85.27;98773.91;5122426;28;20210;-76
2023/06/14 02:44:11;;;;;;;9.00;4.13;;;;;;;16.94;84.67;98786.00;5130295;28;20269;-77
2023/06/14 02:46:40;;;;;;;6.00;3.83;;;;;;;16.96;84.52;98781.34;5126420;28;20198;-76
2023/06/14 02:49:10;;;;;;;5.17;4.00;;;;;;;17.11;83.21;98787.06;5128402;28;20252;-76
2023/06/14 02:51:38;;;;;;;8.00;3.73;;;;;;;17.04;83.88;98777.94;5123846;28;20685;-76
2023/06/14 02:54:06;;;;;;;5.23;4.40;;;;;;;16.98;84.15;98781.19;5126031;28;20203;-77
2023/06/14 02:56:35;;;;;;;9.27;4.20;;;;;;;16.87;84.65;98783.06;5124533;28;20201;-76
2023/06/14 02:59:03;;;;;;;5.87;4.20;;;;;;;16.73;86.38;98783.56;5123569;28;20221;-76
2023/06/14 03:01:35;;;;;;;6.03;4.03;;;;;;;16.66;88.13;98784.25;5128222;28;20649;-76
2023/06/14 03:04:04;;;;;;;7.23;4.17;;;;;;;16.71;88.87;98792.72;5122263;28;20222;-77
2023/06/14 03:06:35;;;;;;;7.23;4.17;;;;;;;16.51;89.92;98790.06;5133009;27;20229;-76
2023/06/14 03:09:05;;;;;;;7.00;4.63;;;;;;;16.53;90.79;98790.75;5121015;28;20209;-76
2023/06/14 03:11:33;;;;;;;8.10;3.80;;;;;;;16.46;91.65;98799.50;5128793;27;20249;-76
2023/06/14 03:14:03;;;;;;;6.93;4.20;;;;;;;16.44;92.85;98805.00;5133673;27;20205;-76
2023/06/14 03:16:32;;;;;;;7.90;3.90;;;;;;;16.29;93.44;98798.41;5133571;27;20190;-76
2023/06/14 03:19:00;;;;;;;6.27;4.10;;;;;;;16.50;93.19;98807.09;5125278;27;20194;-76
2023/06/14 03:21:29;;;;;;;6.87;4.20;;;;;;;16.62;92.03;98807.78;5125765;27;20200;-76
2023/06/14 03:23:58;;;;;;;6.47;4.27;;;;;;;16.30;93.04;98811.63;5132166;27;20214;-76
2023/06/14 03:26:27;;;;;;;7.83;4.10;;;;;;;16.41;93.90;98815.97;5131482;27;20191;-77
2023/06/14 03:28:56;;;;;;;6.67;4.37;;;;;;;16.22;94.57;98818.69;5124588;27;20198;-76
2023/06/14 03:31:25;;;;;;;4.80;4.00;;;;;;;16.39;94.92;98817.09;5129110;27;20226;-76
2023/06/14 03:33:53;;;;;;;5.57;4.00;;;;;;;16.61;93.64;98822.13;5133101;27;20209;-77
2023/06/14 03:36:22;;;;;;;6.17;4.37;;;;;;;16.55;94.04;98822.69;5130188;27;20234;-76
2023/06/14 03:38:51;;;;;;;7.20;4.17;;;;;;;16.45;94.47;98832.56;5125117;27;20231;-76
2023/06/14 03:41:21;;;;;;;9.43;3.90;;;;;;;16.43;94.91;98832.72;5132173;27;20213;-76
2023/06/14 03:43:49;;;;;;;7.53;3.90;;;;;;;16.37;95.79;98830.59;5131368;27;20229;-76
2023/06/14 03:46:18;;;;;;;5.60;4.10;;;;;;;16.41;95.42;98837.38;5129209;27;20190;-76
2023/06/14 03:48:46;;;;;;;6.47;3.80;;;;;;;16.35;95.95;98837.09;5128604;27;20194;-76
2023/06/14 03:51:15;;;;;;;7.73;3.70;;;;;;;16.55;94.69;98841.41;5126960;27;20235;-77
2023/06/14 03:53:44;;;;;;;8.20;3.77;;;;;;;16.47;95.39;98834.09;5124408;27;20490;-76
2023/06/14 03:56:35;;;;;;;7.47;4.10;;;;;;;16.52;94.97;98841.72;5135649;27;20235;-76
2023/06/14 03:59:06;;;;;;;13.57;4.30;;;;;;;16.48;96.51;98843.81;5132705;27;20240;-76
2023/06/14 04:01:35;;;;;;;6.00;3.90;;;;;;;16.50;97.33;98852.56;5126587;27;20279;-77
2023/06/14 04:04:04;;;;;;;6.47;4.17;;;;;;;16.30;98.58;98851.69;5044785;28;20201;-76
2023/06/14 04:06:33;;;;;;;6.63;3.87;;;;;;;16.21;100.00;98857.94;4987849;28;20199;-77
2023/06/14 04:09:03;;;;;;;5.53;3.70;;;;;;;16.30;100.00;98866.91;4982146;28;20199;-76
2023/06/14 04:11:32;;;;;;;6.53;4.13;;;;;;;16.10;100.00;98865.22;4985941;28;20222;-77
2023/06/14 04:14:02;;;;;;;7.30;4.40;;;;;;;16.17;100.00;98869.88;4988661;28;20201;-76
2023/06/14 04:16:31;;;;;;;8.03;4.07;;;;;;;16.34;100.00;98865.66;4988406;28;20226;-77
2023/06/14 04:19:00;;;;;;;5.57;3.90;;;;;;;16.24;100.00;98867.47;4990359;28;20191;-77
2023/06/14 04:21:30;;;;;;;5.10;4.03;;;;;;;16.31;100.00;98872.13;5007786;28;20197;-76
2023/06/14 04:24:02;;;;;;;6.90;3.53;;;;;;;16.39;100.00;98868.72;5070773;27;20225;-77
2023/06/14 04:26:33;;;;;;;5.77;3.80;;;;;;;16.47;100.00;98879.56;5122859;27;20210;-76
2023/06/14 04:29:06;;;;;;;7.27;3.70;;;;;;;16.43;100.00;98880.84;5125833;27;20190;-77
2023/06/14 04:31:37;;;;;;;8.10;3.53;;;;;;;16.30;100.00;98889.13;5129267;27;20246;-76
2023/06/14 04:34:06;;;;;;;6.03;3.67;;;;;;;16.36;100.00;98885.06;5091795;28;20199;-76
2023/06/14 04:36:36;;;;;;;7.00;3.70;;;;;;;16.36;100.00;98884.22;5085481;28;20220;-76
2023/06/14 04:39:06;;;;;;;4.97;3.47;;;;;;;16.42;100.00;98886.34;5081299;28;20245;-77
2023/06/14 04:41:34;;;;;;;10.50;3.93;;;;;;;16.37;100.00;98889.41;5086875;28;20191;-76
2023/06/14 04:44:05;;;;;;;4.53;3.57;;;;;;;16.24;100.00;98884.34;5084637;28;20188;-76
2023/06/14 04:46:43;;;;;;;6.37;3.90;;;;;;;16.27;100.00;98889.41;5082887;28;20204;-76
2023/06/14 04:49:15;;;;;;;8.03;3.60;;;;;;;16.15;100.00;98884.34;5086947;28;20211;-76
2023/06/14 04:51:43;;;;;;;6.10;3.77;;;;;;;16.13;100.00;98884.50;5092315;27;20222;-76
2023/06/14 04:54:14;;;;;;;6.53;3.83;;;;;;;16.30;100.00;98896.31;5133419;27;20216;-76
2023/06/14 04:56:43;;;;;;;5.53;3.97;;;;;;;16.29;100.00;98895.47;5130273;27;20218;-76
2023/06/14 04:59:14;;;;;;;5.60;4.27;;;;;;;16.38;100.00;98892.94;5128089;27;20698;-77
2023/06/14 05:01:47;;;;;;;7.13;3.80;;;;;;;16.41;100.00;98906.88;5128738;27;20247;-76
2023/06/14 05:04:17;;;;;;;6.27;3.80;;;;;;;16.58;100.00;98908.81;5125581;27;20198;-76
2023/06/14 05:06:47;;;;;;;5.93;4.03;;;;;;;16.77;100.00;98899.09;5128892;27;20672;-76
2023/06/14 05:09:18;;;;;;;6.20;3.70;;;;;;;16.66;100.00;98900.06;5128979;27;20213;-76
2023/06/14 05:11:47;;;;;;;10.30;4.00;;;;;;;16.44;100.00;98898.56;5126170;27;20218;-76
2023/06/14 05:14:17;;;;;;;6.57;3.50;;;;;;;16.53;100.00;98892.38;5126737;27;20190;-76
2023/06/14 05:16:46;;;;;;;5.43;3.97;;;;;;;16.63;100.00;98894.19;5129435;27;20209;-76
2023/06/14 05:19:14;;;;;;;5.20;3.57;;;;;;;16.66;100.00;98894.72;5127532;27;20644;-77
2023/06/14 05:21:43;;;;;;;5.53;3.73;;;;;;;16.62;100.00;98892.50;5122730;27;20191;-76
2023/06/14 05:24:11;;;;;;;6.47;3.70;;;;;;;16.58;100.00;98890.09;5127402;27;20289;-76
2023/06/14 05:26:40;;;;;;;4.90;3.80;;;;;;;16.62;100.00;98896.03;5131043;27;20190;-76
2023/06/14 05:29:09;;;;;;;7.13;3.83;;;;;;;16.66;100.00;98896.56;5125316;27;20204;-77
2023/06/14 05:31:39;;;;;;;8.60;4.00;;;;;;;16.54;100.00;98901.22;5125184;27;20194;-77
2023/06/14 05:34:07;;;;;;;6.00;3.87;;;;;;;16.66;100.00;98905.44;5127921;27;20194;-77
2023/06/14 05:36:36;;;;;;;4.00;3.47;;;;;;;16.46;100.00;98899.25;5130612;27;20304;-76
2023/06/14 05:39:05;;;;;;;4.87;3.67;;;;;;;16.79;100.00;98903.34;5122567;27;20210;-76
2023/06/14 05:41:33;;;;;;;4.80;3.67;;;;;;;16.60;100.00;98906.03;5125429;27;20208;-76
2023/06/14 05:44:02;;;;;;;6.97;3.70;;;;;;;16.66;100.00;98913.44;5131943;27;20201;-76
2023/06/14 05:46:30;;;;;;;6.20;4.00;;;;;;;16.57;100.00;98912.47;5129878;27;20194;-76
2023/06/14 05:49:00;;;;;;;6.10;3.50;;;;;;;16.80;100.00;98915.72;5125380;27;20198;-76
2023/06/14 05:51:29;;;;;;;4.70;3.70;;;;;;;16.83;100.00;98914.59;5128976;27;20218;-76
2023/06/14 05:53:57;;;;;;;5.43;3.60;;;;;;;17.01;100.00;98912.88;5125576;27;20210;-76
2023/06/14 05:56:26;;;;;;;5.17;3.63;;;;;;;17.20;100.00;98924.50;5122936;27;20205;-76
2023/06/14 05:58:54;;;;;;;4.67;3.53;;;;;;;17.14;100.00;98934.78;5126424;27;20194;-77
2023/06/14 06:01:23;;;;;;;6.60;3.60;;;;;;;17.00;100.00;98921.03;5130640;28;20206;-76
2023/06/14 06:03:51;;;;;;;6.80;3.73;;;;;;;17.08;100.00;98931.84;5080071;28;20662;-76
2023/06/14 06:06:21;;;;;;;5.60;3.20;;;;;;;17.14;100.00;98932.13;5127154;28;20190;-76
2023/06/14 06:08:50;;;;;;;5.87;3.23;;;;;;;17.24;100.00;98932.09;5126532;28;20208;-76
2023/06/14 06:11:18;;;;;;;7.00;3.23;;;;;;;17.41;100.00;98941.19;5121634;28;20191;-76
2023/06/14 06:13:47;;;;;;;8.23;3.37;;;;;;;17.22;100.00;98941.25;5125282;28;20218;-76
2023/06/14 06:16:16;;;;;;;5.37;3.17;;;;;;;17.44;100.00;98939.06;5126902;28;20645;-76
2023/06/14 06:18:44;;;;;;;4.30;3.33;;;;;;;17.45;100.00;98935.38;5122984;28;20201;-76
2023/06/14 06:21:13;;;;;;;5.97;3.20;;;;;;;17.60;100.00;98945.63;5127067;28;20197;-76
2023/06/14 06:23:44;;;;;;;5.60;3.20;;;;;;;17.58;100.00;98934.22;5128016;28;20201;-76
2023/06/14 06:26:12;;;;;;;10.37;3.20;;;;;;;17.63;100.00;98946.16;5124056;28;20194;-76
2023/06/14 06:28:41;;;;;;;7.33;3.20;;;;;;;17.70;100.00;98939.25;5128654;28;20190;-76
2023/06/14 06:31:10;;;;;;;8.13;3.17;;;;;;;18.03;100.00;98936.94;5127362;28;20560;-76
2023/06/14 06:33:39;;;;;;;7.60;3.03;;;;;;;17.86;99.78;98943.97;5127436;28;20242;-76
2023/06/14 06:36:07;;;;;;;5.03;3.50;;;;;;;17.94;99.04;98935.16;5123358;28;20226;-76
2023/06/14 06:38:39;;;;;;;3.27;2.97;;;;;;;17.99;97.82;98939.09;5124363;28;20191;-76
2023/06/14 06:41:09;;;;;;;4.53;3.27;;;;;;;18.10;98.14;98939.88;5122203;28;20197;-76
2023/06/14 06:43:37;;;;;;;4.73;2.90;;;;;;;18.28;97.92;98952.31;5129281;28;20229;-76
2023/06/14 06:46:05;;;;;;;3.20;2.70;;;;;;;18.23;98.82;98953.75;5126862;27;20194;-76
2023/06/14 06:48:34;;;;;;;4.63;3.07;;;;;;;18.37;97.55;98953.22;5132998;27;20226;-76
2023/06/14 06:51:02;;;;;;;4.60;3.33;;;;;;;18.37;97.34;98955.91;5127950;27;20281;-76
2023/06/14 06:53:30;;;;;;;4.67;3.00;;;;;;;18.54;97.21;98952.41;5124686;27;20225;-76
2023/06/14 06:56:10;;;;;;;8.13;3.30;;;;;;;18.59;96.63;98958.13;5135654;27;20641;-76
2023/06/14 06:58:38;;;;;;;4.03;3.63;;;;;;;18.52;93.82;98964.25;5130003;27;20202;-76
2023/06/14 07:01:09;;;;;;;4.63;2.63;;;;;;;18.58;92.93;98964.50;5130588;27;20273;-76
2023/06/14 07:03:37;;;;;;;6.03;2.93;;;;;;;18.76;90.36;98967.19;5131124;27;20697;-76
2023/06/14 07:06:05;;;;;;;6.57;3.10;;;;;;;18.78;91.37;98969.72;5127693;27;20278;-76
2023/06/14 07:08:34;;;;;;;3.93;2.83;;;;;;;18.81;91.32;98975.59;5128126;27;20728;-76
2023/06/14 07:11:03;;;;;;;3.37;2.80;;;;;;;19.02;92.22;98967.25;5129105;27;20220;-76
2023/06/14 07:13:33;;;;;;;3.60;2.73;;;;;;;19.20;89.11;98967.19;5129546;27;20229;-76
2023/06/14 07:16:02;;;;;;;4.73;2.63;;;;;;;19.23;86.42;98969.56;5128848;27;20194;-76
2023/06/14 07:18:31;;;;;;;3.10;2.67;;;;;;;19.36;84.36;98969.97;5130627;27;20653;-76
2023/06/14 07:20:59;;;;;;;4.13;2.80;;;;;;;19.02;85.33;98972.63;5128144;27;20205;-76
2023/06/14 07:23:29;;;;;;;4.47;2.83;;;;;;;18.92;87.66;98973.72;5134977;27;20187;-76
2023/06/14 07:25:57;;;;;;;3.63;2.87;;;;;;;19.07;87.81;98969.44;5130494;27;20206;-76
2023/06/14 07:28:26;;;;;;;5.13;2.50;;;;;;;19.08;85.01;98973.81;5129385;27;20198;-76
2023/06/14 07:30:58;;;;;;;3.23;2.60;;;;;;;19.06;82.89;98975.81;5067549;28;20223;-76
2023/06/14 07:33:27;;;;;;;6.20;2.70;;;;;;;19.13;83.44;98966.97;5067729;28;20236;-76
2023/06/14 07:35:57;;;;;;;5.73;2.87;;;;;;;19.08;81.93;98974.66;5070064;28;20224;-76
2023/06/14 07:38:25;;;;;;;3.77;2.77;;;;;;;19.21;81.50;98974.25;5067174;28;20667;-76
2023/06/14 07:40:53;;;;;;;3.57;2.43;;;;;;;19.16;81.18;98981.94;5067612;28;20713;-76
2023/06/14 07:43:23;;;;;;;3.20;2.40;;;;;;;19.14;80.22;98978.56;5066784;28;20228;-76
2023/06/14 07:45:52;;;;;;;5.30;2.80;;;;;;;19.30;79.21;98975.13;5065877;28;20216;-76
2023/06/14 07:48:36;;;;;;;3.25;2.33;;;;;;;19.50;78.83;98973.94;5084817;27;20198;-76
2023/06/14 07:51:05;;;;;;;4.17;2.20;;;;;;;19.62;78.52;98975.38;5128204;27;20186;-76
2023/06/14 07:53:33;;;;;;;3.77;2.50;;;;;;;19.67;76.68;98978.41;5131555;27;20214;-76
2023/06/14 07:56:02;;;;;;;4.37;2.57;;;;;;;19.78;76.88;98973.75;5125670;27;20190;-76
2023/06/14 07:58:30;;;;;;;4.03;2.50;;;;;;;19.98;73.96;98969.81;5127895;27;20255;-76
2023/06/14 08:00:59;;;;;;;4.37;2.37;;;;;;;19.75;71.21;98972.22;5125793;27;20218;-76
2023/06/14 08:03:28;;;;;;;4.00;2.30;;;;;;;19.80;69.73;98975.28;5126324;27;20195;-76
2023/06/14 08:05:58;;;;;;;2.53;2.33;;;;;;;19.96;71.22;98980.72;5125881;27;20197;-76
2023/06/14 08:08:26;;;;;;;3.72;2.55;;;;;;;20.25;70.72;98971.38;5129332;27;20198;-77
2023/06/14 08:10:54;;;;;;;3.40;2.38;;;;;;;19.80;69.69;98990.56;5126455;27;20214;-78
2023/06/14 08:13:23;;;;;;;3.08;2.00;;;;;;;19.57;67.96;98984.91;5127744;27;20222;-76
2023/06/14 08:15:51;;;;;;;4.40;2.70;;;;;;;19.60;68.67;98981.91;5127680;27;20302;-77
2023/06/14 08:18:19;;;;;;;2.97;2.33;;;;;;;20.09;68.22;98974.91;5129209;27;20282;-78
2023/06/14 08:20:48;;;;;;;3.70;2.67;;;;;;;20.38;66.73;98977.16;5126328;27;20276;-77
2023/06/14 08:23:18;;;;;;;4.13;2.63;;;;;;;20.62;67.33;98976.38;5134742;27;20194;-77
2023/06/14 08:25:47;;;;;;;4.95;2.75;;;;;;;20.57;65.02;98981.44;5128474;27;20720;-77
2023/06/14 08:28:16;;;;;;;4.05;2.53;;;;;;;20.79;64.70;98982.63;5124547;27;20210;-77
2023/06/14 08:30:44;;;;;;;4.47;2.80;;;;;;;20.54;64.33;98985.28;5132119;27;20190;-76
2023/06/14 08:33:12;;;;;;;5.25;3.40;;;;;;;20.61;65.20;98988.16;5123383;27;20199;-76
2023/06/14 08:35:45;;;;;;;7.32;6.40;;;;;;;20.57;66.59;98986.81;5131638;27;20226;-76
2023/06/14 08:38:14;;;;;;;12.02;7.57;;;;;;;20.32;65.68;98991.25;5123297;27;20190;-77
2023/06/14 08:40:46;;;;;;;16.75;11.88;;;;;;;20.53;64.04;99002.44;5125091;27;20198;-77
2023/06/14 08:43:14;;;;;;;8.25;6.10;;;;;;;20.54;64.81;98979.88;5122297;27;20206;-78
2023/06/14 08:45:47;;;;;;;8.52;3.33;;;;;;;20.84;62.13;98981.13;5131745;27;20678;-76
2023/06/14 08:48:17;;;;;;;3.97;3.47;;;;;;;21.00;61.78;98984.81;5125797;27;20202;-77
2023/06/14 08:50:47;;;;;;;5.05;3.10;;;;;;;21.23;61.27;98987.63;5131705;27;20207;-76
2023/06/14 08:53:20;;;;;;;4.53;2.83;;;;;;;21.38;60.42;98989.50;5126682;27;20191;-77
2023/06/14 08:55:53;;;;;;;5.55;2.83;;;;;;;21.29;59.77;98987.00;5125292;27;20541;-76
2023/06/14 08:58:24;;;;;;;5.60;2.90;;;;;;;21.24;60.91;98990.19;5127306;27;20199;-77
2023/06/14 09:00:53;;;;;;;4.50;2.72;;;;;;;21.03;60.81;98984.44;5124682;27;20203;-76
2023/06/14 09:03:23;;;;;;;2.85;2.63;;;;;;;20.93;59.36;98981.94;5124180;27;20228;-77
2023/06/14 09:05:53;;;;;;;3.28;2.55;;;;;;;20.95;59.21;98989.88;5134422;27;20190;-77
2023/06/14 09:08:22;;;;;;;4.30;2.75;;;;;;;21.29;57.42;98993.22;5130201;27;20187;-77
2023/06/14 09:10:52;;;;;;;4.28;3.05;;;;;;;21.34;58.29;98992.72;5126469;27;20198;-76
2023/06/14 09:13:20;;;;;;;4.75;3.22;;;;;;;21.38;58.20;98991.34;5122418;27;20198;-77
2023/06/14 09:15:48;;;;;;;5.82;2.80;;;;;;;21.45;58.43;98992.38;5063437;28;20220;-77
2023/06/14 09:18:17;;;;;;;5.20;2.80;;;;;;;21.32;55.74;98990.19;5062140;28;20214;-77
2023/06/14 09:20:47;;;;;;;5.72;2.80;;;;;;;21.00;58.36;98987.50;5060655;28;20212;-76
2023/06/14 09:23:21;;;;;;;4.40;2.60;;;;;;;21.33;58.43;98996.44;5062917;28;20200;-78
2023/06/14 09:25:51;;;;;;;5.28;3.10;;;;;;;21.15;58.48;98994.72;5068923;28;20241;-77
2023/06/14 09:28:22;;;;;;;4.80;3.00;;;;;;;21.32;58.90;98992.88;5059835;28;20202;-77
2023/06/14 09:30:51;;;;;;;5.05;2.85;;;;;;;21.68;57.21;99000.56;5061014;28;20203;-76
2023/06/14 09:33:20;;;;;;;4.05;2.63;;;;;;;21.62;57.43;99002.09;5076549;27;20194;-77
2023/06/14 09:35:52;;;;;;;4.03;2.92;;;;;;;21.66;58.35;99005.28;5121980;27;20236;-77
2023/06/14 09:38:20;;;;;;;5.57;2.80;;;;;;;21.63;57.01;99001.09;5124423;27;20218;-77
2023/06/14 09:40:52;;;;;;;2.90;2.60;;;;;;;21.99;57.26;99003.31;5129534;27;20198;-76
2023/06/14 09:43:22;;;;;;;4.47;2.80;;;;;;;22.45;55.35;99012.38;5126175;27;20202;-77
2023/06/14 09:45:52;;;;;;;3.50;2.58;;;;;;;22.66;50.37;99013.59;5122870;27;20190;-77
2023/06/14 09:48:21;;;;;;;3.80;2.50;;;;;;;22.59;50.25;99013.50;5129652;27;20225;-77
2023/06/14 09:50:52;;;;;;;3.47;2.10;;;;;;;22.26;51.14;99010.97;5125501;27;20202;-77
2023/06/14 09:53:23;;;;;;;4.35;2.45;;;;;;;22.82;50.56;99010.81;5127069;27;20247;-76
2023/06/14 09:55:57;;;;;;;2.72;2.17;;;;;;;23.28;51.45;99008.09;5129012;27;20218;-77
2023/06/14 09:58:28;;;;;;;2.53;2.30;;;;;;;23.12;50.41;99007.22;5119436;27;20205;-77
2023/06/14 10:00:58;;;;;;;4.35;2.67;;;;;;;22.72;52.06;99007.50;5125691;28;20217;-77
2023/06/14 10:03:30;;;;;;;4.55;2.40;;;;;;;22.78;51.59;99002.22;5126231;28;20196;-77
2023/06/14 10:06:20;;;;;;;2.95;2.30;;;;;;;23.40;50.37;98998.50;5133594;28;20282;-77
2023/06/14 10:08:50;;;;;;;3.47;2.30;;;;;;;23.45;47.73;98993.41;5123464;28;20226;-77
2023/06/14 10:11:21;;;;;;;3.25;2.25;;;;;;;23.65;46.90;98981.03;5125061;28;20247;-78
2023/06/14 10:13:51;;;;;;;4.68;2.30;;;;;;;23.28;46.34;98998.13;5125913;28;20224;-77
2023/06/14 10:16:25;;;;;;;4.13;2.03;;;;;;;23.66;45.59;98995.41;5123626;28;20222;-76
2023/06/14 10:19:05;;;;;;;3.13;2.30;;;;;;;23.90;44.56;98988.84;5130181;28;20220;-77
2023/06/14 10:21:44;;;;;;;3.33;2.22;;;;;;;23.92;44.42;98986.81;5129018;27;20193;-77
2023/06/14 10:24:19;;;;;;;2.90;2.17;;;;;;;24.26;44.92;98995.16;5125329;27;20246;-77
2023/06/14 10:26:57;;;;;;;5.65;2.50;;;;;;;24.25;44.01;98989.94;5126630;27;20242;-77
2023/06/14 10:29:31;;;;;;;4.82;2.38;;;;;;;23.79;44.97;98982.06;5130672;27;20201;-77
2023/06/14 10:32:03;;;;;;;3.75;2.30;;;;;;;23.48;45.86;98989.47;5068773;28;20203;-77
2023/06/14 10:34:32;;;;;;;2.35;2.03;;;;;;;24.04;46.58;98989.88;5073836;28;20655;-77
2023/06/14 10:37:03;;;;;;;3.35;2.17;;;;;;;24.36;45.63;98981.34;5064549;28;20279;-77
2023/06/14 10:39:33;;;;;;;3.25;2.22;;;;;;;24.30;45.71;98989.34;5066697;28;20208;-78
2023/06/14 10:42:06;;;;;;;2.55;2.25;;;;;;;24.60;45.11;98982.00;5014153;28;20206;-77
2023/06/14 10:44:45;;;;;;;3.20;2.20;;;;;;;24.64;45.91;98977.91;5008120;28;20193;-77
2023/06/14 10:47:25;;;;;;;5.03;2.25;;;;;;;23.85;46.37;98985.91;5007388;28;20237;-77
2023/06/14 10:49:54;;;;;;;4.03;2.22;;;;;;;23.21;47.44;98990.94;5010160;28;20303;-77
2023/06/14 10:52:25;;;;;;;7.25;2.83;;;;;;;23.25;48.55;98987.66;5014188;28;20226;-77
2023/06/14 10:55:14;;;;;;;6.78;2.55;;;;;;;23.22;47.72;98989.91;5010153;28;20222;-77
2023/06/14 10:57:49;;;;;;;3.17;2.30;;;;;;;23.06;47.93;98988.16;5048400;28;20197;-77
2023/06/14 11:00:24;;;;;;;2.85;2.40;;;;;;;23.02;47.85;98993.09;5097050;27;20230;-77
2023/06/14 11:03:37;;;;;;;4.28;2.38;;;;;;;23.97;46.58;98993.34;5129446;27;20219;-77
2023/06/14 11:06:15;;;;;;;4.95;2.40;;;;;;;24.97;43.64;98986.34;5132007;27;20198;-78
2023/06/14 11:09:10;;;;;;;3.45;2.20;;;;;;;24.91;42.43;98982.56;5129485;27;20202;-77
2023/06/14 11:11:39;;;;;;;6.45;2.55;;;;;;;24.78;43.99;98982.41;5127843;27;20210;-77
2023/06/14 11:14:09;;;;;;;3.00;2.20;;;;;;;24.15;44.36;98994.81;5137272;27;20186;-77
2023/06/14 11:16:37;;;;;;;4.38;2.40;;;;;;;24.01;45.83;98995.66;5130503;27;20213;-76
2023/06/14 11:19:07;;;;;;;2.60;2.38;;;;;;;23.82;46.29;99000.63;5128654;27;20209;-77
2023/06/14 11:21:41;;;;;;;3.30;2.13;;;;;;;23.75;46.15;98996.16;5129003;27;20232;-77
2023/06/14 11:24:12;;;;;;;2.90;2.35;;;;;;;23.79;46.87;98997.44;5078299;27;20200;-77
2023/06/14 11:26:42;;;;;;;3.58;2.17;;;;;;;24.13;46.20;98996.88;5125798;27;20265;-77
2023/06/14 11:29:12;;;;;;;3.42;2.35;;;;;;;24.26;45.89;99000.56;5077026;27;20200;-77
2023/06/14 11:31:44;;;;;;;4.68;2.50;;;;;;;24.39;46.32;98999.91;5136192;27;20198;-77
2023/06/14 11:34:13;;;;;;;2.67;2.47;;;;;;;24.65;44.40;99001.25;5124807;27;20228;-78
2023/06/14 11:36:43;;;;;;;4.35;2.83;;;;;;;24.44;46.17;98993.94;5108141;28;20268;-77
2023/06/14 11:39:12;;;;;;;2.95;2.53;;;;;;;24.24;45.02;99008.06;5110512;28;20287;-77
2023/06/14 11:41:42;;;;;;;4.68;2.35;;;;;;;24.23;45.91;99000.13;5105963;28;20195;-77
2023/06/14 11:44:13;;;;;;;3.10;2.58;;;;;;;24.65;44.46;99003.97;5113316;28;20191;-77
2023/06/14 11:46:41;;;;;;;2.95;2.70;;;;;;;25.00;42.77;98985.97;5110465;28;20222;-78